createdAt,value
2017-08-22T00:01:30.518Z,99.90
2017-08-22T00:03:58.036Z,99.90
2017-08-22T00:06:25.578Z,99.90
2017-08-22T00:08:53.092Z,99.90
2017-08-22T00:11:20.614Z,99.90
2017-08-22T00:13:48.154Z,99.90
2017-08-22T00:16:15.698Z,99.90
2017-08-22T00:18:43.230Z,99.90
2017-08-22T00:21:10.790Z,99.90
2017-08-22T00:23:38.671Z,99.90
2017-08-22T00:26:06.205Z,99.90
2017-08-22T00:28:33.777Z,99.90
2017-08-22T00:31:01.341Z,99.90
2017-08-22T00:33:28.943Z,99.90
2017-08-22T00:35:56.481Z,99.90
2017-08-22T00:38:24.013Z,99.90
2017-08-22T00:40:51.597Z,99.90
2017-08-22T00:43:19.133Z,99.90
2017-08-22T00:45:46.693Z,99.90
2017-08-22T00:48:14.353Z,99.90
2017-08-22T00:50:41.897Z,99.90
2017-08-22T00:53:09.471Z,99.90
2017-08-22T00:55:37.032Z,99.90
2017-08-22T00:58:04.570Z,99.90
2017-08-22T01:00:32.152Z,99.90
2017-08-22T01:02:59.712Z,99.90
2017-08-22T01:05:27.268Z,99.90
2017-08-22T01:07:54.798Z,99.90
2017-08-22T01:10:22.319Z,99.90
2017-08-22T01:12:49.866Z,99.90
2017-08-22T01:15:17.384Z,99.90
2017-08-22T01:17:44.974Z,99.90
2017-08-22T01:20:12.514Z,99.90
2017-08-22T01:22:40.090Z,99.90
2017-08-22T01:25:07.618Z,99.90
2017-08-22T01:27:35.205Z,99.90
2017-08-22T01:30:02.770Z,99.90
2017-08-22T01:32:30.297Z,99.90
2017-08-22T01:34:57.929Z,99.90
2017-08-22T01:37:25.482Z,99.90
2017-08-22T01:39:53.113Z,99.90
2017-08-22T01:42:20.655Z,99.90
2017-08-22T01:44:48.179Z,99.90
2017-08-22T01:47:15.701Z,99.90
2017-08-22T01:49:43.348Z,99.90
2017-08-22T01:52:10.928Z,99.90
2017-08-22T01:54:38.466Z,99.90
2017-08-22T01:57:06.047Z,99.90
2017-08-22T01:59:33.569Z,99.90
2017-08-22T02:02:01.091Z,99.90
2017-08-22T02:04:28.630Z,99.90
2017-08-22T02:06:56.148Z,99.90
2017-08-22T02:09:23.664Z,99.90
2017-08-22T02:11:51.206Z,99.90
2017-08-22T02:14:18.773Z,99.90
2017-08-22T02:16:46.400Z,99.90
2017-08-22T02:19:13.942Z,99.90
2017-08-22T02:21:41.461Z,99.90
2017-08-22T02:24:08.978Z,99.90
2017-08-22T02:26:36.526Z,99.90
2017-08-22T02:29:04.094Z,99.90
2017-08-22T02:31:31.625Z,99.90
2017-08-22T02:33:59.174Z,99.90
2017-08-22T02:36:26.723Z,99.90
2017-08-22T02:38:54.249Z,99.90
2017-08-22T02:41:21.826Z,99.90
2017-08-22T02:43:49.458Z,99.90
2017-08-22T02:46:16.981Z,99.90
2017-08-22T02:48:44.587Z,99.90
2017-08-22T02:51:12.113Z,99.90
2017-08-22T02:53:40.285Z,99.90
2017-08-22T02:56:07.837Z,99.90
2017-08-22T02:58:35.429Z,99.90
2017-08-22T03:01:02.942Z,99.90
2017-08-22T03:03:30.540Z,99.90
2017-08-22T03:05:58.066Z,99.90
2017-08-22T03:08:25.590Z,99.90
2017-08-22T03:10:53.142Z,99.90
2017-08-22T03:13:20.690Z,99.90
2017-08-22T03:15:48.214Z,99.90
2017-08-22T03:18:15.802Z,99.90
2017-08-22T03:20:43.456Z,99.90
2017-08-22T03:23:10.984Z,99.90
2017-08-22T03:25:38.526Z,99.90
2017-08-22T03:28:06.142Z,99.90
2017-08-22T03:30:33.703Z,99.90
2017-08-22T03:33:01.237Z,99.90
2017-08-22T03:35:28.761Z,99.90
2017-08-22T03:37:56.743Z,99.90
2017-08-22T03:40:24.285Z,99.90
2017-08-22T03:42:51.833Z,99.90
2017-08-22T03:45:19.357Z,99.90
2017-08-22T03:47:46.893Z,99.90
2017-08-22T03:50:14.429Z,99.90
2017-08-22T03:52:42.049Z,99.90
2017-08-22T03:55:09.609Z,99.90
2017-08-22T03:57:37.138Z,99.90
2017-08-22T04:00:04.661Z,99.90
2017-08-22T04:02:32.201Z,99.90
2017-08-22T04:04:59.942Z,99.90
2017-08-22T04:07:27.493Z,99.90
2017-08-22T04:09:55.060Z,99.90
2017-08-22T04:12:22.625Z,99.90
2017-08-22T04:14:50.149Z,99.90
2017-08-22T04:17:17.690Z,99.90
2017-08-22T04:19:45.314Z,99.90
2017-08-22T04:22:12.846Z,99.90
2017-08-22T04:24:40.870Z,99.90
2017-08-22T04:27:08.406Z,99.90
2017-08-22T04:29:35.934Z,99.90
2017-08-22T04:32:03.478Z,99.90
2017-08-22T04:34:31.005Z,99.90
2017-08-22T04:36:58.525Z,99.90
2017-08-22T04:39:26.083Z,99.90
2017-08-22T04:41:53.621Z,99.90
2017-08-22T04:44:21.165Z,99.90
2017-08-22T04:46:48.765Z,99.90
2017-08-22T04:49:16.325Z,99.90
2017-08-22T04:51:43.981Z,99.90
2017-08-22T04:54:11.557Z,99.90
2017-08-22T04:56:39.072Z,99.90
2017-08-22T04:59:06.602Z,99.90
2017-08-22T05:01:34.232Z,99.90
2017-08-22T05:04:01.793Z,99.90
2017-08-22T05:06:29.314Z,99.90
2017-08-22T05:08:56.856Z,99.90
2017-08-22T05:11:24.488Z,99.90
2017-08-22T05:13:52.052Z,99.90
2017-08-22T05:16:19.615Z,99.90
2017-08-22T05:18:47.143Z,99.90
2017-08-22T05:21:14.686Z,99.90
2017-08-22T05:23:42.266Z,99.90
2017-08-22T05:26:09.802Z,99.90
2017-08-22T05:28:37.324Z,99.90
2017-08-22T05:31:04.956Z,99.90
2017-08-22T05:33:32.502Z,99.90
2017-08-22T05:36:00.090Z,99.90
2017-08-22T05:38:27.737Z,99.90
2017-08-22T05:40:55.281Z,99.90
2017-08-22T05:43:22.814Z,99.90
2017-08-22T05:45:51.158Z,99.90
2017-08-22T05:48:18.687Z,99.90
2017-08-22T05:50:46.209Z,99.90
2017-08-22T05:53:13.753Z,99.90
2017-08-22T05:55:41.270Z,99.90
2017-08-22T05:58:09.427Z,99.90
2017-08-22T06:00:36.997Z,99.90
2017-08-22T06:03:04.545Z,99.90
2017-08-22T06:05:32.072Z,99.90
2017-08-22T06:07:59.624Z,99.90
2017-08-22T06:10:27.168Z,99.90
2017-08-22T06:12:54.695Z,99.90
2017-08-22T06:15:22.335Z,99.90
2017-08-22T06:17:50.588Z,99.90
2017-08-22T06:20:18.284Z,99.90
2017-08-22T06:22:45.830Z,99.90
2017-08-22T06:25:13.358Z,99.90
2017-08-22T06:27:40.900Z,99.90
2017-08-22T06:30:08.452Z,99.90
2017-08-22T06:32:36.090Z,99.90
2017-08-22T06:35:03.646Z,99.90
2017-08-22T06:37:31.199Z,99.90
2017-08-22T06:39:58.728Z,99.90
2017-08-22T06:42:26.327Z,99.90
2017-08-22T06:44:53.877Z,99.90
2017-08-22T06:47:22.070Z,99.90
2017-08-22T06:49:49.607Z,99.90
2017-08-22T06:52:17.149Z,99.90
2017-08-22T06:54:44.671Z,99.90
2017-08-22T06:57:12.257Z,99.90
2017-08-22T06:59:39.867Z,99.90
2017-08-22T07:02:07.403Z,99.90
2017-08-22T07:04:34.977Z,99.90
2017-08-22T07:07:02.537Z,99.90
2017-08-22T07:09:30.057Z,99.90
2017-08-22T07:11:57.663Z,99.90
2017-08-22T07:14:25.206Z,99.90
2017-08-22T07:16:52.773Z,99.90
2017-08-22T07:19:20.309Z,99.90
2017-08-22T07:21:47.867Z,99.90
2017-08-22T07:24:15.394Z,99.90
2017-08-22T07:26:43.021Z,99.90
2017-08-22T07:29:10.568Z,99.90
2017-08-22T07:31:38.134Z,99.90
2017-08-22T07:34:05.689Z,99.90
2017-08-22T07:36:33.230Z,99.90
2017-08-22T07:39:00.758Z,99.90
2017-08-22T07:41:28.382Z,99.90
2017-08-22T07:43:55.941Z,99.90
2017-08-22T07:46:23.469Z,99.90
2017-08-22T07:48:51.009Z,99.90
2017-08-22T07:51:18.646Z,99.90
2017-08-22T07:53:46.280Z,99.90
2017-08-22T07:56:13.833Z,99.90
2017-08-22T07:58:41.385Z,99.90
2017-08-22T08:01:08.909Z,99.90
2017-08-22T08:03:36.505Z,99.90
2017-08-22T08:06:04.069Z,99.90
2017-08-22T08:08:31.667Z,99.90
2017-08-22T08:10:59.199Z,99.90
2017-08-22T08:13:26.744Z,99.90
2017-08-22T08:15:54.277Z,99.90
2017-08-22T08:18:21.806Z,99.90
2017-08-22T08:20:49.350Z,99.90
2017-08-22T08:23:16.890Z,99.90
2017-08-22T08:25:44.448Z,99.90
2017-08-22T08:28:12.116Z,99.90
2017-08-22T08:30:39.642Z,99.90
2017-08-22T08:33:07.164Z,99.90
2017-08-22T08:35:34.790Z,99.90
2017-08-22T08:38:02.322Z,99.90
2017-08-22T08:40:29.980Z,99.90
2017-08-22T08:42:57.569Z,99.90
2017-08-22T08:45:25.098Z,99.90
2017-08-22T08:47:52.686Z,99.90
2017-08-22T08:50:20.246Z,99.90
2017-08-22T08:52:47.778Z,99.90
2017-08-22T08:55:15.301Z,99.90
2017-08-22T08:57:42.936Z,99.90
2017-08-22T09:00:10.462Z,99.90
2017-08-22T09:02:37.978Z,99.90
2017-08-22T09:05:05.515Z,99.90
2017-08-22T09:07:33.035Z,99.90
2017-08-22T09:10:00.553Z,99.90
2017-08-22T09:12:28.092Z,99.90
2017-08-22T09:14:55.619Z,99.90
2017-08-22T09:17:23.141Z,99.90
2017-08-22T09:19:50.693Z,99.90
2017-08-22T09:22:18.315Z,99.90
2017-08-22T09:24:45.872Z,99.90
2017-08-22T09:27:13.434Z,99.90
2017-08-22T09:29:40.956Z,99.90
2017-08-22T09:32:08.534Z,99.90
2017-08-22T09:34:36.071Z,99.90
2017-08-22T09:37:04.362Z,99.90
2017-08-22T09:39:31.886Z,99.90
2017-08-22T09:41:59.430Z,99.90
2017-08-22T09:44:26.952Z,95.20
2017-08-22T09:46:54.525Z,93.60
2017-08-22T09:49:22.086Z,91.80
2017-08-22T09:51:49.614Z,96.00
2017-08-22T09:54:17.142Z,93.70
2017-08-22T09:56:44.774Z,97.10
2017-08-22T09:59:12.298Z,90.80
2017-08-22T10:01:39.853Z,85.20
2017-08-22T10:04:07.403Z,83.00
2017-08-22T10:07:03.045Z,83.20
2017-08-22T10:09:30.614Z,84.60
2017-08-22T10:11:58.585Z,87.80
2017-08-22T10:14:26.569Z,90.00
2017-08-22T10:16:54.111Z,88.90
2017-08-22T10:19:21.670Z,70.40
2017-08-22T10:21:49.337Z,73.10
2017-08-22T10:24:16.873Z,69.50
2017-08-22T10:26:44.389Z,71.40
2017-08-22T10:29:11.907Z,73.10
2017-08-22T10:31:39.486Z,72.60
2017-08-22T10:34:07.007Z,64.70
2017-08-22T10:36:34.594Z,60.00
2017-08-22T10:39:02.146Z,60.10
2017-08-22T10:41:29.714Z,61.20
2017-08-22T10:43:57.274Z,60.60
2017-08-22T10:46:24.936Z,57.10
2017-08-22T10:48:52.513Z,59.80
2017-08-22T10:51:20.042Z,56.50
2017-08-22T10:53:47.616Z,56.00
2017-08-22T10:56:15.142Z,52.90
2017-08-22T10:58:42.734Z,49.70
2017-08-22T11:01:10.296Z,50.40
2017-08-22T11:03:37.822Z,51.30
2017-08-22T11:06:05.421Z,46.60
2017-08-22T11:08:32.980Z,44.20
2017-08-22T11:11:00.536Z,45.40
2017-08-22T11:13:28.061Z,45.30
2017-08-22T11:15:55.601Z,45.30
2017-08-22T11:18:23.129Z,44.20
2017-08-22T11:20:50.665Z,43.90
2017-08-22T11:23:18.227Z,43.90
2017-08-22T11:25:45.785Z,42.30
2017-08-22T11:28:13.308Z,42.10
2017-08-22T11:30:40.908Z,41.60
2017-08-22T11:33:08.465Z,40.70
2017-08-22T11:35:36.022Z,41.30
2017-08-22T11:38:03.592Z,41.40
2017-08-22T11:40:31.144Z,41.10
2017-08-22T11:42:58.700Z,40.30
2017-08-22T11:45:26.261Z,39.00
2017-08-22T11:47:53.778Z,39.30
2017-08-22T11:50:21.302Z,38.60
2017-08-22T11:52:48.838Z,36.80
2017-08-22T11:55:16.366Z,36.70
2017-08-22T11:57:43.896Z,37.90
2017-08-22T12:00:11.433Z,39.00
2017-08-22T12:02:38.954Z,38.70
2017-08-22T12:05:06.506Z,40.30
2017-08-22T12:07:34.057Z,40.40
2017-08-22T12:10:01.662Z,39.60
2017-08-22T12:12:29.237Z,40.90
2017-08-22T12:14:56.777Z,41.20
2017-08-22T12:17:24.335Z,42.10
2017-08-22T12:19:51.857Z,43.00
2017-08-22T12:22:19.397Z,43.80
2017-08-22T12:24:47.014Z,43.60
2017-08-22T12:27:14.533Z,41.20
2017-08-22T12:29:42.120Z,40.00
2017-08-22T12:32:09.695Z,38.40
2017-08-22T12:34:37.223Z,38.70
2017-08-22T12:37:05.529Z,40.80
2017-08-22T12:39:33.088Z,40.80
2017-08-22T12:42:00.607Z,41.10
2017-08-22T12:44:28.210Z,40.00
2017-08-22T12:46:55.792Z,40.60
2017-08-22T12:49:23.312Z,40.60
2017-08-22T12:51:50.890Z,38.80
2017-08-22T12:54:18.444Z,37.00
2017-08-22T12:56:45.960Z,38.50
2017-08-22T12:59:13.564Z,36.60
2017-08-22T13:01:41.125Z,35.00
2017-08-22T13:04:08.646Z,34.00
2017-08-22T13:06:36.189Z,34.40
2017-08-22T13:09:03.809Z,35.60
2017-08-22T13:11:31.330Z,35.80
2017-08-22T13:13:58.870Z,35.90
2017-08-22T13:16:26.430Z,36.10
2017-08-22T13:18:53.957Z,35.10
2017-08-22T13:21:22.328Z,35.10
2017-08-22T13:23:49.897Z,34.20
2017-08-22T13:26:17.434Z,34.00
2017-08-22T13:28:44.994Z,32.80
2017-08-22T13:31:12.518Z,31.00
2017-08-22T13:33:40.089Z,30.50
2017-08-22T13:36:07.630Z,30.90
2017-08-22T13:38:35.148Z,31.50
2017-08-22T13:41:02.672Z,32.70
2017-08-22T13:43:30.218Z,35.00
2017-08-22T13:45:57.742Z,36.80
2017-08-22T13:48:25.258Z,39.20
2017-08-22T13:50:52.830Z,41.10
2017-08-22T13:53:20.362Z,40.60
2017-08-22T13:55:47.954Z,40.10
2017-08-22T13:58:15.510Z,37.80
2017-08-22T14:00:43.070Z,37.20
2017-08-22T14:03:10.635Z,36.50
2017-08-22T14:05:38.189Z,37.90
2017-08-22T14:08:05.725Z,37.00
2017-08-22T14:10:33.393Z,35.10
2017-08-22T14:13:00.929Z,34.40
2017-08-22T14:15:29.237Z,32.20
2017-08-22T14:17:56.801Z,32.20
2017-08-22T14:20:24.373Z,31.60
2017-08-22T14:22:51.925Z,31.40
2017-08-22T14:25:19.483Z,31.80
2017-08-22T14:27:47.157Z,31.70
2017-08-22T14:30:14.681Z,31.60
2017-08-22T14:32:42.274Z,31.90
2017-08-22T14:35:09.925Z,32.90
2017-08-22T14:37:37.461Z,32.60
2017-08-22T14:40:05.049Z,32.50
2017-08-22T14:42:32.743Z,32.50
2017-08-22T14:45:00.369Z,32.40
2017-08-22T14:47:27.896Z,32.30
2017-08-22T14:49:55.439Z,33.10
2017-08-22T14:52:23.054Z,33.80
2017-08-22T14:54:50.634Z,32.60
2017-08-22T14:57:18.286Z,32.90
2017-08-22T14:59:45.828Z,31.30
2017-08-22T15:02:13.351Z,32.30
2017-08-22T15:04:40.902Z,33.10
2017-08-22T15:07:08.514Z,33.50
2017-08-22T15:09:36.042Z,34.10
2017-08-22T15:12:03.642Z,35.80
2017-08-22T15:14:31.175Z,37.20
2017-08-22T15:16:58.746Z,37.80
2017-08-22T15:19:26.976Z,38.80
2017-08-22T15:21:54.689Z,39.60
2017-08-22T15:24:22.245Z,40.30
2017-08-22T15:26:49.807Z,41.00
2017-08-22T15:29:17.370Z,41.90
2017-08-22T15:31:44.894Z,42.80
2017-08-22T15:34:12.585Z,42.20
2017-08-22T15:36:40.145Z,42.70
2017-08-22T15:39:07.713Z,43.10
2017-08-22T15:41:35.265Z,43.10
2017-08-22T15:44:02.793Z,42.90
2017-08-22T15:46:31.077Z,44.40
2017-08-22T15:48:58.612Z,44.30
2017-08-22T15:51:26.901Z,43.70
2017-08-22T15:53:54.440Z,43.70
2017-08-22T15:56:21.978Z,44.30
2017-08-22T15:58:49.512Z,43.90
2017-08-22T16:01:17.023Z,45.50
2017-08-22T16:03:44.577Z,45.90
2017-08-22T16:06:12.202Z,45.40
2017-08-22T16:08:39.854Z,45.40
2017-08-22T16:11:07.393Z,45.50
2017-08-22T16:13:34.978Z,45.00
2017-08-22T16:16:02.498Z,45.60
2017-08-22T16:18:30.098Z,45.70
2017-08-22T16:20:57.621Z,45.30
2017-08-22T16:23:25.352Z,45.00
2017-08-22T16:25:52.985Z,45.40
2017-08-22T16:28:20.544Z,46.30
2017-08-22T16:30:48.078Z,47.00
2017-08-22T16:33:15.777Z,47.90
2017-08-22T16:35:43.301Z,47.50
2017-08-22T16:38:10.899Z,46.60
2017-08-22T16:40:39.147Z,47.10
2017-08-22T16:43:10.967Z,47.60
2017-08-22T16:45:38.501Z,48.20
2017-08-22T16:48:06.197Z,48.00
2017-08-22T16:50:33.737Z,48.70
2017-08-22T16:53:01.261Z,48.90
2017-08-22T16:55:28.812Z,48.40
2017-08-22T16:57:56.473Z,49.20
2017-08-22T17:00:24.027Z,49.20
2017-08-22T17:02:51.567Z,49.60
2017-08-22T17:05:19.090Z,49.40
2017-08-22T17:07:46.732Z,49.90
2017-08-22T17:10:14.375Z,49.10
2017-08-22T17:12:41.898Z,49.30
2017-08-22T17:15:09.616Z,49.70
2017-08-22T17:17:37.258Z,50.90
2017-08-22T17:20:04.774Z,51.10
2017-08-22T17:22:32.805Z,51.30
2017-08-22T17:25:00.382Z,52.00
2017-08-22T17:27:28.026Z,52.00
2017-08-22T17:29:56.394Z,52.40
2017-08-22T17:32:24.570Z,52.90
2017-08-22T17:34:52.558Z,53.30
2017-08-22T17:37:20.198Z,53.80
2017-08-22T17:39:47.738Z,53.70
2017-08-22T17:42:15.414Z,54.00
2017-08-22T17:44:42.941Z,54.40
2017-08-22T17:47:10.542Z,54.80
2017-08-22T17:49:38.081Z,55.10
2017-08-22T17:52:05.649Z,55.10
2017-08-22T17:54:33.185Z,55.70
2017-08-22T17:57:00.729Z,56.30
2017-08-22T17:59:29.020Z,57.30
2017-08-22T18:01:56.813Z,57.40
2017-08-22T18:04:24.340Z,57.60
2017-08-22T18:06:51.876Z,58.00
2017-08-22T18:09:19.438Z,59.20
2017-08-22T18:11:46.976Z,59.60
2017-08-22T18:14:14.518Z,61.80
2017-08-22T18:16:42.178Z,62.30
2017-08-22T18:19:09.833Z,64.80
2017-08-22T18:21:37.370Z,65.90
2017-08-22T18:24:06.584Z,67.70
2017-08-22T18:26:34.110Z,68.30
2017-08-22T18:29:01.714Z,70.60
2017-08-22T18:31:29.378Z,72.90
2017-08-22T18:33:56.924Z,75.50
2017-08-22T18:36:24.506Z,80.60
2017-08-22T18:38:52.701Z,84.00
2017-08-22T18:41:20.234Z,89.30
2017-08-22T18:43:47.765Z,91.90
2017-08-22T18:46:15.317Z,93.20
2017-08-22T18:48:42.869Z,96.30
2017-08-22T18:51:10.398Z,99.70
2017-08-22T18:53:38.053Z,99.90
2017-08-22T18:56:05.589Z,99.90
2017-08-22T18:58:33.151Z,99.90
2017-08-22T19:01:00.721Z,99.90
2017-08-22T19:03:28.261Z,99.90
2017-08-22T19:05:55.820Z,99.90
2017-08-22T19:08:23.392Z,99.90
2017-08-22T19:10:51.254Z,99.90
2017-08-22T19:13:18.806Z,99.90
2017-08-22T19:15:46.352Z,99.90
2017-08-22T19:18:13.923Z,99.90
2017-08-22T19:20:41.551Z,99.90
2017-08-22T19:23:09.151Z,99.90
2017-08-22T19:25:36.681Z,99.90
2017-08-22T19:28:04.269Z,99.90
2017-08-22T19:30:31.822Z,99.90
2017-08-22T19:32:59.364Z,99.90
2017-08-22T19:35:26.954Z,99.90
2017-08-22T19:37:54.507Z,99.90
2017-08-22T19:40:22.046Z,99.90
2017-08-22T19:42:49.621Z,99.90
2017-08-22T19:45:17.193Z,99.90
2017-08-22T19:47:44.714Z,99.90
2017-08-22T19:50:13.027Z,99.90
2017-08-22T19:52:40.677Z,99.90
2017-08-22T19:55:08.405Z,99.90
2017-08-22T19:57:36.011Z,99.90
2017-08-22T20:00:03.665Z,99.90
2017-08-22T20:02:31.189Z,99.90
2017-08-22T20:04:58.783Z,99.90
2017-08-22T20:07:26.350Z,99.90
2017-08-22T20:09:53.877Z,99.90
2017-08-22T20:12:21.410Z,99.90
2017-08-22T20:14:48.963Z,99.90
2017-08-22T20:17:16.499Z,99.90
2017-08-22T20:19:44.028Z,99.90
2017-08-22T20:22:11.670Z,99.90
2017-08-22T20:24:40.446Z,99.90
2017-08-22T20:27:07.974Z,99.90
2017-08-22T20:29:35.826Z,99.90
2017-08-22T20:32:03.362Z,99.90
2017-08-22T20:34:30.890Z,99.90
2017-08-22T20:36:58.501Z,99.90
2017-08-22T20:39:26.061Z,99.90
2017-08-22T20:41:53.585Z,99.90
2017-08-22T20:44:21.137Z,99.90
2017-08-22T20:46:49.458Z,99.90
2017-08-22T20:49:16.993Z,99.90
2017-08-22T20:51:44.543Z,99.90
2017-08-22T20:54:12.089Z,99.90
2017-08-22T20:56:39.608Z,99.90
2017-08-22T20:59:07.194Z,99.90
2017-08-22T21:01:34.811Z,99.90
2017-08-22T21:04:02.369Z,99.90
2017-08-22T21:06:30.046Z,99.90
2017-08-22T21:08:57.574Z,99.90
2017-08-22T21:11:25.149Z,99.90
2017-08-22T21:13:52.689Z,99.90
2017-08-22T21:16:20.218Z,99.90
2017-08-22T21:18:48.189Z,99.90
2017-08-22T21:21:15.806Z,99.90
2017-08-22T21:23:43.342Z,99.90
2017-08-22T21:26:11.518Z,99.90
2017-08-22T21:28:39.095Z,99.90
2017-08-22T21:31:06.650Z,99.90
2017-08-22T21:33:34.193Z,99.90
2017-08-22T21:36:01.738Z,99.90
2017-08-22T21:38:29.292Z,99.90
2017-08-22T21:40:56.824Z,99.90
2017-08-22T21:43:24.374Z,99.90
2017-08-22T21:45:51.909Z,99.90
2017-08-22T21:48:19.469Z,99.90
2017-08-22T21:50:47.033Z,99.90
2017-08-22T21:53:14.561Z,99.90
2017-08-22T21:55:42.093Z,99.90
2017-08-22T21:58:09.705Z,99.90
2017-08-22T22:00:37.230Z,99.90
2017-08-22T22:03:04.821Z,99.90
2017-08-22T22:05:32.357Z,99.90
2017-08-22T22:07:59.915Z,99.90
2017-08-22T22:10:27.510Z,99.90
2017-08-22T22:12:55.053Z,99.90
2017-08-22T22:15:22.582Z,99.90
2017-08-22T22:17:50.185Z,99.90
2017-08-22T22:20:17.747Z,99.90
2017-08-22T22:22:45.379Z,99.90
2017-08-22T22:25:12.904Z,99.90
2017-08-22T22:27:40.449Z,99.90
2017-08-22T22:30:07.978Z,99.90
2017-08-22T22:32:35.642Z,99.90
2017-08-22T22:35:03.192Z,99.90
2017-08-22T22:37:30.767Z,99.90
2017-08-22T22:39:58.437Z,99.90
2017-08-22T22:42:25.978Z,99.90
2017-08-22T22:44:53.510Z,99.90
2017-08-22T22:47:21.038Z,99.90
2017-08-22T22:49:48.582Z,99.90
2017-08-22T22:52:16.125Z,99.90
2017-08-22T22:54:43.649Z,99.90
2017-08-22T22:57:11.257Z,99.90
2017-08-22T22:59:38.786Z,99.90
2017-08-22T23:02:06.361Z,99.90
2017-08-22T23:04:33.925Z,99.90
2017-08-22T23:07:01.484Z,99.90
2017-08-22T23:09:29.037Z,99.90
2017-08-22T23:11:56.605Z,99.90
2017-08-22T23:14:24.141Z,99.90
2017-08-22T23:16:51.723Z,99.90
2017-08-22T23:19:19.279Z,99.90
2017-08-22T23:21:46.868Z,99.90
2017-08-22T23:24:14.390Z,99.90
2017-08-22T23:26:41.962Z,99.90
2017-08-22T23:29:09.515Z,99.90
2017-08-22T23:31:37.077Z,99.90
2017-08-22T23:34:04.626Z,99.90
2017-08-22T23:36:32.154Z,99.90
2017-08-22T23:38:59.680Z,99.90
2017-08-22T23:41:27.318Z,99.90
2017-08-22T23:43:54.839Z,99.90
2017-08-22T23:46:22.443Z,99.90
2017-08-22T23:48:49.989Z,99.90
2017-08-22T23:51:17.557Z,99.90
2017-08-22T23:53:45.123Z,99.90
2017-08-22T23:56:12.793Z,99.90
2017-08-22T23:58:40.321Z,99.90
